createdAt,value
2024-02-01T00:00:39.367Z,6.70
2024-02-01T00:02:43.656Z,6.70
2024-02-01T00:04:46.488Z,6.70
2024-02-01T00:06:51.752Z,6.80
2024-02-01T00:08:54.661Z,6.80
2024-02-01T00:10:57.977Z,6.80
2024-02-01T00:13:00.697Z,6.80
2024-02-01T00:15:05.058Z,6.70
2024-02-01T00:17:08.013Z,6.80
2024-02-01T00:19:12.209Z,6.70
2024-02-01T00:21:15.135Z,6.80
2024-02-01T00:23:17.875Z,6.70
2024-02-01T00:25:20.756Z,6.60
2024-02-01T00:27:23.489Z,6.50
2024-02-01T00:29:26.524Z,6.40
2024-02-01T00:31:29.257Z,6.40
2024-02-01T00:33:31.318Z,6.40
2024-02-01T00:35:35.570Z,6.30
2024-02-01T00:37:38.318Z,6.30
2024-02-01T00:39:41.051Z,6.20
2024-02-01T00:41:42.918Z,6.20
2024-02-01T00:43:45.855Z,6.20
2024-02-01T00:45:48.562Z,6.10
2024-02-01T00:47:51.486Z,6.10
2024-02-01T00:49:54.268Z,6.00
2024-02-01T00:51:58.972Z,6.10
2024-02-01T00:54:01.964Z,6.00
2024-02-01T00:56:05.592Z,6.00
2024-02-01T00:58:08.342Z,6.00
2024-02-01T01:00:12.218Z,6.00
2024-02-01T01:02:15.669Z,6.00
2024-02-01T01:04:18.500Z,6.00
2024-02-01T01:06:21.300Z,6.00
2024-02-01T01:08:25.509Z,6.00
2024-02-01T01:10:28.311Z,5.90
2024-02-01T01:12:31.738Z,5.90
2024-02-01T01:14:34.567Z,6.00
2024-02-01T01:16:37.350Z,6.00
2024-02-01T01:18:40.206Z,5.90
2024-02-01T01:20:43.007Z,6.00
2024-02-01T01:22:45.746Z,5.90
2024-02-01T01:24:49.833Z,6.00
2024-02-01T01:26:51.795Z,6.00
2024-02-01T01:28:54.602Z,6.00
2024-02-01T01:30:57.594Z,6.00
2024-02-01T01:33:00.421Z,6.00
2024-02-01T01:35:04.020Z,6.00
2024-02-01T01:37:06.800Z,6.00
2024-02-01T01:39:10.541Z,6.10
2024-02-01T01:41:14.688Z,6.10
2024-02-01T01:43:17.445Z,6.00
2024-02-01T01:45:20.257Z,6.10
2024-02-01T01:47:22.998Z,6.10
2024-02-01T01:49:25.793Z,6.00
2024-02-01T01:51:27.574Z,6.00
2024-02-01T01:53:30.620Z,6.00
2024-02-01T01:55:33.440Z,6.10
2024-02-01T01:57:36.521Z,6.10
2024-02-01T01:59:39.290Z,6.00
2024-02-01T02:01:43.608Z,6.00
2024-02-01T02:03:46.512Z,6.00
2024-02-01T02:05:49.313Z,6.10
2024-02-01T02:07:52.108Z,6.10
2024-02-01T02:09:54.837Z,6.00
2024-02-01T02:11:57.612Z,6.10
2024-02-01T02:14:01.710Z,6.10
2024-02-01T02:16:04.732Z,6.10
2024-02-01T02:18:11.626Z,6.10
2024-02-01T02:20:20.226Z,6.10
2024-02-01T02:22:25.644Z,6.10
2024-02-01T02:24:28.363Z,6.10
2024-02-01T02:26:30.313Z,6.10
2024-02-01T02:28:36.892Z,6.10
2024-02-01T02:30:39.711Z,6.20
2024-02-01T02:32:42.709Z,6.20
2024-02-01T02:34:45.675Z,6.10
2024-02-01T02:36:49.024Z,6.20
2024-02-01T02:38:53.175Z,6.20
2024-02-01T02:40:55.943Z,6.20
2024-02-01T02:42:58.854Z,6.10
2024-02-01T02:45:00.698Z,6.20
2024-02-01T02:47:03.446Z,6.20
2024-02-01T02:49:09.665Z,6.20
2024-02-01T02:51:12.690Z,6.20
2024-02-01T02:53:15.590Z,6.20
2024-02-01T02:55:19.679Z,6.20
2024-02-01T02:57:22.445Z,6.20
2024-02-01T02:59:25.229Z,6.20
2024-02-01T03:01:28.084Z,6.20
2024-02-01T03:03:31.310Z,6.30
2024-02-01T03:05:34.134Z,6.20
2024-02-01T03:07:35.940Z,6.20
2024-02-01T03:09:38.660Z,6.20
2024-02-01T03:11:42.764Z,6.20
2024-02-01T03:13:47.173Z,6.20
2024-02-01T03:15:50.082Z,6.30
2024-02-01T03:17:52.961Z,6.30
2024-02-01T03:19:55.924Z,6.20
2024-02-01T03:21:59.532Z,6.30
2024-02-01T03:24:03.268Z,6.30
2024-02-01T03:26:06.047Z,6.40
2024-02-01T03:28:10.454Z,6.40
2024-02-01T03:30:13.140Z,6.40
2024-02-01T03:32:16.191Z,6.30
2024-02-01T03:34:21.862Z,6.30
2024-02-01T03:36:24.900Z,6.30
2024-02-01T03:38:27.944Z,6.30
2024-02-01T03:40:30.716Z,6.40
2024-02-01T03:42:33.591Z,6.30
2024-02-01T03:44:40.374Z,6.40
2024-02-01T03:46:43.417Z,6.30
2024-02-01T03:48:46.296Z,6.40
2024-02-01T03:50:50.749Z,6.40
2024-02-01T03:52:53.507Z,6.30
2024-02-01T03:54:56.990Z,6.30
2024-02-01T03:56:59.822Z,6.40
2024-02-01T03:59:03.074Z,6.50
2024-02-01T04:01:08.287Z,6.40
2024-02-01T04:03:16.087Z,6.40
2024-02-01T04:05:19.050Z,6.50
2024-02-01T04:07:22.024Z,6.40
2024-02-01T04:09:25.423Z,6.40
2024-02-01T04:11:31.195Z,6.40
2024-02-01T04:13:33.986Z,6.40
2024-02-01T04:15:36.120Z,6.40
2024-02-01T04:17:40.222Z,6.40
2024-02-01T04:19:43.034Z,6.50
2024-02-01T04:21:47.740Z,6.40
2024-02-01T04:23:49.611Z,6.40
2024-02-01T04:25:52.416Z,6.50
2024-02-01T04:27:55.619Z,6.50
2024-02-01T04:29:58.694Z,6.50
2024-02-01T04:32:01.573Z,6.50
2024-02-01T04:34:05.922Z,6.50
2024-02-01T04:36:09.919Z,6.50
2024-02-01T04:38:12.860Z,6.50
2024-02-01T04:40:16.140Z,6.60
2024-02-01T04:42:24.582Z,6.40
2024-02-01T04:44:27.599Z,6.50
2024-02-01T04:46:30.341Z,6.50
2024-02-01T04:48:33.206Z,6.50
2024-02-01T04:50:37.409Z,6.40
2024-02-01T04:52:40.687Z,6.50
2024-02-01T04:54:43.451Z,6.50
2024-02-01T04:56:46.204Z,6.60
2024-02-01T04:58:48.966Z,6.50
2024-02-01T05:00:52.051Z,6.50
2024-02-01T05:02:55.349Z,6.50
2024-02-01T05:04:58.174Z,6.70
2024-02-01T05:07:02.355Z,6.60
2024-02-01T05:09:05.457Z,6.60
2024-02-01T05:11:11.447Z,6.70
2024-02-01T05:13:14.248Z,6.70
2024-02-01T05:15:19.223Z,6.70
2024-02-01T05:17:22.010Z,6.60
2024-02-01T05:19:26.396Z,6.60
2024-02-01T05:21:29.302Z,6.70
2024-02-01T05:23:34.848Z,6.60
2024-02-01T05:25:41.381Z,6.60
2024-02-01T05:27:51.847Z,6.60
2024-02-01T05:29:55.223Z,6.80
2024-02-01T05:31:58.173Z,6.70
2024-02-01T05:34:00.950Z,6.60
2024-02-01T05:36:07.631Z,6.70
2024-02-01T05:38:10.577Z,6.50
2024-02-01T05:40:17.902Z,6.60
2024-02-01T05:42:20.699Z,6.50
2024-02-01T05:44:22.602Z,6.50
2024-02-01T05:46:25.540Z,6.50
2024-02-01T05:48:28.333Z,6.50
2024-02-01T05:50:30.591Z,6.40
2024-02-01T05:52:36.622Z,6.30
2024-02-01T05:54:39.338Z,6.30
2024-02-01T05:56:45.057Z,6.30
2024-02-01T05:58:47.766Z,6.10
2024-02-01T06:00:49.739Z,6.30
2024-02-01T06:02:52.572Z,6.10
2024-02-01T06:04:55.437Z,6.00
2024-02-01T06:06:58.185Z,6.00
2024-02-01T06:09:00.966Z,6.00
2024-02-01T06:11:04.175Z,6.00
2024-02-01T06:13:08.205Z,6.00
2024-02-01T06:15:12.691Z,5.80
2024-02-01T06:17:15.888Z,5.80
2024-02-01T06:19:19.713Z,5.90
2024-02-01T06:21:22.571Z,5.70
2024-02-01T06:23:25.318Z,5.70
2024-02-01T06:25:28.184Z,5.60
2024-02-01T06:27:29.973Z,5.60
2024-02-01T06:29:34.092Z,5.60
2024-02-01T06:31:38.878Z,5.60
2024-02-01T06:33:42.038Z,5.60
2024-02-01T06:35:46.370Z,5.50
2024-02-01T06:37:53.876Z,5.60
2024-02-01T06:40:12.437Z,5.60
2024-02-01T06:42:25.243Z,5.50
2024-02-01T06:44:28.219Z,5.60
2024-02-01T06:46:50.561Z,5.50
2024-02-01T06:49:12.685Z,5.40
2024-02-01T06:51:25.440Z,5.40
2024-02-01T06:53:35.560Z,5.50
2024-02-01T06:55:44.858Z,5.40
2024-02-01T06:57:49.268Z,5.50
2024-02-01T07:00:15.759Z,5.30
2024-02-01T07:02:36.536Z,5.30
2024-02-01T07:04:43.521Z,5.30
2024-02-01T07:07:09.964Z,5.20
2024-02-01T07:09:28.700Z,5.20
2024-02-01T07:11:31.689Z,5.30
2024-02-01T07:13:46.442Z,5.30
2024-02-01T07:15:49.549Z,5.10
2024-02-01T07:18:00.019Z,5.20
2024-02-01T07:20:15.250Z,5.10
2024-02-01T07:22:35.932Z,5.30
2024-02-01T07:25:00.162Z,5.20
2024-02-01T07:27:25.939Z,5.30
2024-02-01T07:29:42.726Z,5.50
2024-02-01T07:32:03.172Z,5.50
2024-02-01T07:34:25.118Z,5.60
2024-02-01T07:36:45.344Z,6.00
2024-02-01T07:39:05.834Z,6.00
2024-02-01T07:41:37.896Z,6.10
2024-02-01T07:43:58.224Z,6.00
2024-02-01T07:46:18.819Z,6.20
2024-02-01T07:48:39.549Z,6.30
2024-02-01T07:51:06.760Z,6.10
2024-02-01T07:53:27.050Z,6.10
2024-02-01T07:55:47.501Z,6.50
2024-02-01T07:57:56.659Z,6.40
2024-02-01T07:59:59.609Z,6.20
2024-02-01T08:02:24.815Z,6.20
2024-02-01T08:04:47.620Z,6.10
2024-02-01T08:07:17.842Z,6.10
2024-02-01T08:09:20.741Z,6.00
2024-02-01T08:11:23.368Z,6.00
2024-02-01T08:13:26.418Z,6.00
2024-02-01T08:15:28.430Z,6.00
2024-02-01T08:17:31.774Z,6.00
2024-02-01T08:19:40.365Z,5.90
2024-02-01T08:21:44.039Z,6.00
2024-02-01T08:23:48.190Z,6.00
2024-02-01T08:25:51.725Z,6.00
2024-02-01T08:27:54.996Z,6.10
2024-02-01T08:29:58.465Z,6.10
2024-02-01T08:32:01.326Z,6.20
2024-02-01T08:34:03.774Z,6.20
2024-02-01T08:36:07.645Z,6.20
2024-02-01T08:38:10.702Z,6.20
2024-02-01T08:40:18.223Z,6.30
2024-02-01T08:42:21.085Z,6.30
2024-02-01T08:44:24.942Z,6.30
2024-02-01T08:46:27.700Z,6.30
2024-02-01T08:48:29.544Z,6.40
2024-02-01T08:50:33.179Z,6.50
2024-02-01T08:52:35.095Z,6.50
2024-02-01T08:54:38.992Z,6.60
2024-02-01T08:56:43.994Z,6.70
2024-02-01T08:58:46.807Z,6.60
2024-02-01T09:00:50.429Z,6.70
2024-02-01T09:03:04.439Z,6.70
2024-02-01T09:05:20.726Z,6.80
2024-02-01T09:07:23.988Z,6.90
2024-02-01T09:09:32.763Z,7.00
2024-02-01T09:11:35.534Z,6.90
2024-02-01T09:13:39.747Z,6.90
2024-02-01T09:15:43.307Z,6.90
2024-02-01T09:17:47.804Z,7.00
2024-02-01T09:19:50.771Z,7.00
2024-02-01T09:21:54.121Z,7.10
2024-02-01T09:23:56.938Z,7.10
2024-02-01T09:25:59.868Z,6.90
2024-02-01T09:28:12.918Z,6.90
2024-02-01T09:30:20.631Z,6.90
2024-02-01T09:32:23.604Z,6.90
2024-02-01T09:34:26.683Z,6.90
2024-02-01T09:36:29.909Z,7.00
2024-02-01T09:38:33.730Z,7.10
2024-02-01T09:40:42.381Z,7.00
2024-02-01T09:42:45.831Z,7.00
2024-02-01T09:44:47.707Z,7.10
2024-02-01T09:46:51.888Z,7.80
2024-02-01T09:48:56.026Z,8.70
2024-02-01T09:50:59.563Z,9.10
2024-02-01T09:53:03.203Z,9.30
2024-02-01T09:55:06.935Z,9.80
2024-02-01T09:57:15.936Z,9.70
2024-02-01T09:59:18.987Z,10.30
2024-02-01T10:01:25.652Z,11.00
2024-02-01T10:03:30.284Z,10.80
2024-02-01T10:05:34.005Z,11.30
2024-02-01T10:07:37.122Z,10.60
2024-02-01T10:09:40.037Z,9.80
2024-02-01T10:11:43.254Z,10.30
2024-02-01T10:13:45.060Z,11.00
2024-02-01T10:15:48.174Z,11.90
2024-02-01T10:17:53.153Z,12.70
2024-02-01T10:19:57.511Z,12.90
2024-02-01T10:22:06.686Z,12.10
2024-02-01T10:24:11.518Z,10.90
2024-02-01T10:26:19.457Z,10.80
2024-02-01T10:28:23.433Z,10.60
2024-02-01T10:30:25.725Z,10.70
2024-02-01T10:32:28.538Z,11.30
2024-02-01T10:34:31.505Z,12.30
2024-02-01T10:36:39.009Z,11.20
2024-02-01T10:38:45.676Z,10.90
2024-02-01T10:40:59.722Z,11.40
2024-02-01T10:43:02.667Z,11.30
2024-02-01T10:45:06.660Z,11.40
2024-02-01T10:47:14.099Z,12.50
2024-02-01T10:49:23.117Z,12.90
2024-02-01T10:51:26.323Z,12.50
2024-02-01T10:53:29.467Z,12.30
2024-02-01T10:55:32.221Z,12.00
2024-02-01T10:57:35.902Z,13.20
2024-02-01T10:59:39.922Z,13.50
2024-02-01T11:01:41.836Z,12.90
2024-02-01T11:03:48.972Z,13.10
2024-02-01T11:05:51.794Z,13.60
2024-02-01T11:07:53.681Z,12.90
2024-02-01T11:09:57.838Z,13.40
2024-02-01T11:12:00.807Z,13.60
2024-02-01T11:14:11.212Z,14.20
2024-02-01T11:16:14.181Z,14.80
2024-02-01T11:18:17.072Z,14.20
2024-02-01T11:20:23.252Z,14.40
2024-02-01T11:22:26.019Z,15.40
2024-02-01T11:24:29.521Z,15.30
2024-02-01T11:26:41.136Z,15.60
2024-02-01T11:28:48.273Z,14.30
2024-02-01T11:30:58.533Z,14.40
2024-02-01T11:33:18.597Z,14.00
2024-02-01T11:35:24.037Z,13.20
2024-02-01T11:37:29.013Z,12.60
2024-02-01T11:39:32.537Z,12.20
2024-02-01T11:41:36.796Z,11.90
2024-02-01T11:43:40.100Z,12.40
2024-02-01T11:45:42.935Z,12.00
2024-02-01T11:47:45.099Z,11.40
2024-02-01T11:49:50.422Z,11.10
2024-02-01T11:51:56.769Z,10.80
2024-02-01T11:53:59.578Z,11.00
2024-02-01T11:56:01.829Z,11.60
2024-02-01T11:58:13.171Z,11.00
2024-02-01T12:00:24.763Z,12.30
2024-02-01T12:02:36.046Z,11.80
2024-02-01T12:04:41.582Z,12.90
2024-02-01T12:06:45.186Z,13.40
2024-02-01T12:08:49.115Z,13.70
2024-02-01T12:10:52.004Z,13.70
2024-02-01T12:12:54.734Z,13.00
2024-02-01T12:14:58.858Z,13.40
2024-02-01T12:17:03.149Z,13.60
2024-02-01T12:19:13.917Z,13.60
2024-02-01T12:21:27.648Z,12.30
2024-02-01T12:23:35.731Z,12.30
2024-02-01T12:25:37.545Z,12.20
2024-02-01T12:27:41.452Z,11.60
2024-02-01T12:29:44.365Z,11.30
2024-02-01T12:31:50.601Z,10.90
2024-02-01T12:33:54.868Z,10.50
2024-02-01T12:35:57.726Z,10.00
2024-02-01T12:38:02.972Z,9.70
2024-02-01T12:40:07.212Z,9.50
2024-02-01T12:42:15.467Z,9.30
2024-02-01T12:44:19.841Z,9.80
2024-02-01T12:46:25.804Z,9.70
2024-02-01T12:48:29.252Z,9.60
2024-02-01T12:50:40.133Z,10.50
2024-02-01T12:52:43.134Z,11.30
2024-02-01T12:54:46.570Z,12.00
2024-02-01T12:56:49.407Z,12.40
2024-02-01T12:58:52.540Z,12.70
2024-02-01T13:00:55.328Z,12.90
2024-02-01T13:02:59.538Z,13.10
2024-02-01T13:05:08.745Z,13.30
2024-02-01T13:07:12.989Z,12.70
2024-02-01T13:09:29.493Z,12.90
2024-02-01T13:11:32.306Z,12.40
2024-02-01T13:13:35.188Z,13.10
2024-02-01T13:15:38.010Z,12.00
2024-02-01T13:17:41.351Z,11.50
2024-02-01T13:19:43.325Z,11.40
2024-02-01T13:21:47.822Z,11.10
2024-02-01T13:23:50.811Z,11.00
2024-02-01T13:25:55.329Z,11.00
2024-02-01T13:27:58.137Z,10.90
2024-02-01T13:30:00.942Z,10.70
2024-02-01T13:32:09.107Z,10.40
2024-02-01T13:34:11.961Z,10.00
2024-02-01T13:36:14.821Z,10.00
2024-02-01T13:38:18.909Z,10.10
2024-02-01T13:40:22.549Z,10.10
2024-02-01T13:42:25.365Z,10.00
2024-02-01T13:44:28.194Z,10.50
2024-02-01T13:46:30.919Z,10.30
2024-02-01T13:48:33.791Z,10.30
2024-02-01T13:50:35.665Z,10.30
2024-02-01T13:52:38.879Z,10.20
2024-02-01T13:54:42.016Z,10.10
2024-02-01T13:56:45.020Z,9.90
2024-02-01T13:58:47.789Z,9.60
2024-02-01T14:00:58.010Z,9.20
2024-02-01T14:03:02.008Z,9.00
2024-02-01T14:05:04.511Z,9.00
2024-02-01T14:07:07.528Z,8.80
2024-02-01T14:09:11.251Z,8.80
2024-02-01T14:11:16.053Z,8.70
2024-02-01T14:13:19.486Z,8.50
2024-02-01T14:15:22.635Z,8.50
2024-02-01T14:17:25.416Z,8.50
2024-02-01T14:19:31.424Z,8.50
2024-02-01T14:21:34.539Z,9.40
2024-02-01T14:23:37.334Z,9.90
2024-02-01T14:25:40.444Z,9.90
2024-02-01T14:27:44.533Z,9.70
2024-02-01T14:29:47.285Z,9.50
2024-02-01T14:31:50.230Z,9.40
2024-02-01T14:33:53.134Z,9.20
2024-02-01T14:35:56.929Z,8.90
2024-02-01T14:37:59.743Z,8.70
2024-02-01T14:40:03.800Z,8.50
2024-02-01T14:42:07.013Z,8.40
2024-02-01T14:44:12.624Z,8.40
2024-02-01T14:46:15.434Z,8.40
2024-02-01T14:48:18.355Z,8.20
2024-02-01T14:50:22.473Z,8.20
2024-02-01T14:52:25.264Z,8.20
2024-02-01T14:54:28.083Z,8.10
2024-02-01T14:56:29.864Z,8.10
2024-02-01T14:58:32.779Z,8.10
2024-02-01T15:00:35.961Z,8.10
2024-02-01T15:02:38.827Z,8.20
2024-02-01T15:04:41.597Z,8.60
2024-02-01T15:06:44.788Z,8.80
2024-02-01T15:08:47.550Z,9.00
2024-02-01T15:10:50.861Z,9.30
2024-02-01T15:12:52.658Z,9.50
2024-02-01T15:14:55.442Z,9.50
2024-02-01T15:16:59.647Z,9.20
2024-02-01T15:19:03.089Z,9.00
2024-02-01T15:21:13.079Z,8.80
2024-02-01T15:23:15.936Z,8.60
2024-02-01T15:25:18.687Z,8.40
2024-02-01T15:27:22.428Z,8.30
2024-02-01T15:29:25.902Z,8.20
2024-02-01T15:31:28.918Z,8.10
2024-02-01T15:33:33.188Z,8.00
2024-02-01T15:35:36.474Z,7.90
2024-02-01T15:37:39.346Z,7.80
2024-02-01T15:39:41.149Z,7.70
2024-02-01T15:41:44.045Z,7.70
2024-02-01T15:43:46.896Z,7.50
2024-02-01T15:45:51.595Z,7.50
2024-02-01T15:47:54.427Z,7.40
2024-02-01T15:50:02.211Z,7.40
2024-02-01T15:52:05.792Z,7.40
2024-02-01T15:54:08.650Z,7.30
2024-02-01T15:56:11.546Z,7.30
2024-02-01T15:58:14.287Z,7.20
2024-02-01T16:00:18.033Z,7.10
2024-02-01T16:02:20.992Z,7.00
2024-02-01T16:04:23.866Z,7.00
2024-02-01T16:06:28.125Z,7.00
2024-02-01T16:08:30.039Z,6.90
2024-02-01T16:10:32.787Z,6.80
2024-02-01T16:12:35.644Z,6.80
2024-02-01T16:14:37.633Z,6.80
2024-02-01T16:16:42.344Z,6.70
2024-02-01T16:18:45.193Z,6.60
2024-02-01T16:20:52.610Z,6.60
2024-02-01T16:22:56.798Z,6.60
2024-02-01T16:24:59.787Z,6.50
2024-02-01T16:27:02.614Z,6.50
2024-02-01T16:29:05.429Z,6.40
2024-02-01T16:31:08.426Z,6.40
2024-02-01T16:33:10.723Z,6.30
2024-02-01T16:35:28.388Z,6.30
2024-02-01T16:37:31.103Z,6.20
2024-02-01T16:39:52.683Z,6.20
2024-02-01T16:41:57.157Z,6.20
2024-02-01T16:44:00.456Z,6.10
2024-02-01T16:46:03.288Z,6.10
2024-02-01T16:48:10.860Z,6.10
2024-02-01T16:50:24.708Z,6.10
2024-02-01T16:52:46.590Z,6.10
2024-02-01T16:54:50.807Z,6.00
2024-02-01T16:56:53.624Z,6.00
2024-02-01T16:58:56.618Z,6.00
2024-02-01T17:00:58.723Z,5.90
2024-02-01T17:03:16.744Z,5.90
2024-02-01T17:05:27.841Z,5.80
2024-02-01T17:07:30.651Z,5.70
2024-02-01T17:09:32.764Z,5.70
2024-02-01T17:11:37.717Z,5.70
2024-02-01T17:13:40.519Z,5.60
2024-02-01T17:15:42.329Z,5.60
2024-02-01T17:17:45.256Z,5.60
2024-02-01T17:19:50.281Z,5.60
2024-02-01T17:21:52.305Z,5.50
2024-02-01T17:23:55.543Z,5.50
2024-02-01T17:26:07.513Z,5.50
2024-02-01T17:28:14.106Z,5.50
2024-02-01T17:30:50.725Z,5.50
2024-02-01T17:32:53.600Z,5.40
2024-02-01T17:34:56.570Z,5.50
2024-02-01T17:36:59.226Z,5.50
2024-02-01T17:39:05.289Z,5.50
2024-02-01T17:41:10.588Z,5.40
2024-02-01T17:43:14.715Z,5.40
2024-02-01T17:45:35.665Z,5.40
2024-02-01T17:47:38.627Z,5.40
2024-02-01T17:49:42.892Z,5.40
2024-02-01T17:51:48.398Z,5.40
2024-02-01T17:53:53.179Z,5.40
2024-02-01T17:55:56.524Z,5.50
2024-02-01T17:57:58.983Z,5.50
2024-02-01T18:00:03.580Z,5.50
2024-02-01T18:02:09.515Z,5.50
2024-02-01T18:04:33.113Z,5.50
2024-02-01T18:06:39.883Z,5.40
2024-02-01T18:08:43.839Z,5.40
2024-02-01T18:10:50.966Z,5.30
2024-02-01T18:12:54.410Z,5.30
2024-02-01T18:14:57.556Z,5.30
2024-02-01T18:17:01.741Z,5.30
2024-02-01T18:19:05.936Z,5.30
2024-02-01T18:21:12.521Z,5.30
2024-02-01T18:23:14.772Z,5.30
2024-02-01T18:25:18.750Z,5.30
2024-02-01T18:27:22.694Z,5.20
2024-02-01T18:29:30.183Z,5.20
2024-02-01T18:31:33.339Z,5.20
2024-02-01T18:33:37.747Z,5.20
2024-02-01T18:35:44.563Z,5.10
2024-02-01T18:37:47.608Z,5.10
2024-02-01T18:39:50.337Z,5.20
2024-02-01T18:41:57.408Z,5.10
2024-02-01T18:44:17.385Z,5.10
2024-02-01T18:46:35.932Z,5.10
2024-02-01T18:48:41.258Z,5.10
2024-02-01T18:50:44.303Z,5.10
2024-02-01T18:52:47.055Z,5.10
2024-02-01T18:54:49.801Z,5.10
2024-02-01T18:56:51.668Z,5.10
2024-02-01T18:58:54.655Z,5.10
2024-02-01T19:00:59.673Z,5.10
2024-02-01T19:03:02.452Z,5.10
2024-02-01T19:05:06.753Z,5.10
2024-02-01T19:07:13.903Z,5.10
2024-02-01T19:09:37.428Z,5.00
2024-02-01T19:11:43.808Z,5.00
2024-02-01T19:13:53.782Z,5.00
2024-02-01T19:15:56.532Z,5.00
2024-02-01T19:18:00.801Z,5.00
2024-02-01T19:20:09.249Z,5.00
2024-02-01T19:22:12.852Z,5.00
2024-02-01T19:24:23.015Z,4.90
2024-02-01T19:26:25.812Z,4.90
2024-02-01T19:28:48.508Z,4.90
2024-02-01T19:30:54.465Z,4.90
2024-02-01T19:32:57.434Z,4.90
2024-02-01T19:35:00.248Z,4.90
2024-02-01T19:37:04.402Z,4.90
2024-02-01T19:39:10.274Z,4.90
2024-02-01T19:41:13.185Z,4.90
2024-02-01T19:43:15.956Z,4.80
2024-02-01T19:45:18.733Z,4.80
2024-02-01T19:47:21.526Z,4.80
2024-02-01T19:49:24.557Z,4.80
2024-02-01T19:51:26.505Z,4.70
2024-02-01T19:53:30.857Z,4.70
2024-02-01T19:55:33.599Z,4.70
2024-02-01T19:57:36.409Z,4.70
2024-02-01T19:59:39.162Z,4.60
2024-02-01T20:01:41.911Z,4.60
2024-02-01T20:03:43.749Z,4.60
2024-02-01T20:05:47.601Z,4.60
2024-02-01T20:07:50.387Z,4.60
2024-02-01T20:09:54.644Z,4.60
2024-02-01T20:11:57.416Z,4.50
2024-02-01T20:14:02.499Z,4.50
2024-02-01T20:16:06.648Z,4.50
2024-02-01T20:18:09.754Z,4.50
2024-02-01T20:20:18.652Z,4.50
2024-02-01T20:22:21.747Z,4.40
2024-02-01T20:24:24.553Z,4.50
2024-02-01T20:26:28.650Z,4.40
2024-02-01T20:28:51.656Z,4.50
2024-02-01T20:30:54.508Z,4.40
2024-02-01T20:32:58.789Z,4.40
2024-02-01T20:35:01.693Z,4.40
2024-02-01T20:37:06.062Z,4.40
2024-02-01T20:39:23.244Z,4.30
2024-02-01T20:41:25.962Z,4.30
2024-02-01T20:43:30.182Z,4.30
2024-02-01T20:45:32.940Z,4.30
2024-02-01T20:47:39.112Z,4.30
2024-02-01T20:49:43.834Z,4.30
2024-02-01T20:51:55.695Z,4.20
2024-02-01T20:53:58.506Z,4.20
2024-02-01T20:56:01.283Z,4.30
2024-02-01T20:58:07.778Z,4.20
2024-02-01T21:00:18.822Z,4.20
2024-02-01T21:02:51.653Z,4.20
2024-02-01T21:04:54.408Z,4.20
2024-02-01T21:06:57.234Z,4.20
2024-02-01T21:09:00.196Z,4.20
2024-02-01T21:11:02.343Z,4.20
2024-02-01T21:13:07.547Z,4.20
2024-02-01T21:15:10.354Z,4.10
2024-02-01T21:17:21.761Z,4.10
2024-02-01T21:19:24.717Z,4.10
2024-02-01T21:21:28.926Z,4.00
2024-02-01T21:23:35.918Z,4.00
2024-02-01T21:26:12.117Z,4.00
2024-02-01T21:28:17.256Z,3.90
2024-02-01T21:30:20.105Z,3.90
2024-02-01T21:32:24.244Z,3.90
2024-02-01T21:34:29.360Z,3.90
2024-02-01T21:36:32.272Z,3.80
2024-02-01T21:38:35.908Z,3.80
2024-02-01T21:40:39.472Z,3.80
2024-02-01T21:42:58.940Z,3.80
2024-02-01T21:45:01.724Z,3.80
2024-02-01T21:47:06.223Z,3.70
2024-02-01T21:49:13.510Z,3.80
2024-02-01T21:51:15.657Z,3.80
2024-02-01T21:53:19.245Z,3.80
2024-02-01T21:55:23.220Z,3.70
2024-02-01T21:57:27.820Z,3.80
2024-02-01T21:59:30.882Z,3.70
2024-02-01T22:01:33.653Z,3.70
2024-02-01T22:03:36.458Z,3.70
2024-02-01T22:05:40.538Z,3.70
2024-02-01T22:07:43.108Z,3.70
2024-02-01T22:09:45.866Z,3.70
2024-02-01T22:11:49.714Z,3.70
2024-02-01T22:13:52.484Z,3.70
2024-02-01T22:15:55.258Z,3.70
2024-02-01T22:17:58.143Z,3.70
2024-02-01T22:20:00.144Z,3.70
2024-02-01T22:22:04.379Z,3.70
2024-02-01T22:24:07.756Z,3.60
2024-02-01T22:26:10.513Z,3.70
2024-02-01T22:28:13.251Z,3.70
2024-02-01T22:30:17.212Z,3.70
2024-02-01T22:32:20.245Z,3.60
2024-02-01T22:34:23.160Z,3.70
2024-02-01T22:36:26.014Z,3.60
2024-02-01T22:38:30.176Z,3.70
2024-02-01T22:40:32.937Z,3.70
2024-02-01T22:42:35.746Z,3.70
2024-02-01T22:44:38.621Z,3.60
2024-02-01T22:46:40.386Z,3.60
2024-02-01T22:48:43.402Z,3.70
2024-02-01T22:50:46.780Z,3.70
2024-02-01T22:52:49.563Z,3.70
2024-02-01T22:54:53.705Z,3.80
2024-02-01T22:56:56.515Z,3.80
2024-02-01T22:58:58.339Z,3.80
2024-02-01T23:01:01.113Z,3.80
2024-02-01T23:03:04.110Z,3.90
2024-02-01T23:05:07.467Z,3.80
2024-02-01T23:07:10.473Z,3.90
2024-02-01T23:09:13.486Z,3.90
2024-02-01T23:11:18.174Z,3.90
2024-02-01T23:13:20.927Z,3.90
2024-02-01T23:15:23.917Z,3.90
2024-02-01T23:17:26.746Z,3.90
2024-02-01T23:19:29.574Z,4.00
2024-02-01T23:21:32.962Z,4.00
2024-02-01T23:23:36.032Z,4.00
2024-02-01T23:25:38.778Z,4.00
2024-02-01T23:27:42.865Z,4.10
2024-02-01T23:29:45.668Z,4.10
2024-02-01T23:31:48.492Z,4.10
2024-02-01T23:33:50.372Z,4.10
2024-02-01T23:35:53.252Z,4.10
2024-02-01T23:37:56.497Z,4.10
2024-02-01T23:40:00.248Z,4.10
2024-02-01T23:42:03.007Z,4.20
2024-02-01T23:44:07.268Z,4.20
2024-02-01T23:46:10.188Z,4.20
2024-02-01T23:48:12.098Z,4.20
2024-02-01T23:50:14.911Z,4.20
2024-02-01T23:52:17.657Z,4.30
2024-02-01T23:54:20.437Z,4.20
2024-02-01T23:56:24.009Z,4.20
2024-02-01T23:58:26.760Z,4.30
